Time;durP1;ratioP1;P1;durP2;ratioP2;P2;SDS_P1;SDS_P2;PMS_P1;PMS_P2;Temp;Humidity;BMP_temperature;BMP_pressure;BME280_temperature;BME280_humidity;BME280_pressure;Samples;Min_cycle;Max_cycle;Signal;HPM_P1;HPM_P2
2023/09/21 00:01:03;;;;;;;0.28;0.28;;;17.80;99.90;;;;;;5102122;28;20035;-75
2023/09/21 00:03:34;;;;;;;0.38;0.38;;;17.80;99.90;;;;;;5098946;28;20041;-76
2023/09/21 00:06:00;;;;;;;0.40;0.40;;;17.80;99.90;;;;;;5104683;28;20051;-76
2023/09/21 00:08:26;;;;;;;;;;;17.80;99.90;;;;;;5106015;28;20123;-75
2023/09/21 00:10:52;;;;;;;0.38;0.38;;;17.80;99.90;;;;;;5104260;28;20018;-76
2023/09/21 00:13:20;;;;;;;0.20;0.20;;;17.80;99.90;;;;;;5106660;28;20090;-76
2023/09/21 00:15:47;;;;;;;0.30;0.30;;;17.90;99.90;;;;;;5106691;27;20127;-75
2023/09/21 00:18:13;;;;;;;2.67;1.05;;;17.90;99.90;;;;;;5103854;28;20078;-76
2023/09/21 00:23:08;;;;;;;0.30;0.30;;;17.90;99.90;;;;;;5104222;28;19974;-76
2023/09/21 00:25:34;;;;;;;0.30;0.30;;;18.00;99.90;;;;;;5097870;28;20040;-76
2023/09/21 00:28:07;;;;;;;0.30;0.30;;;18.00;99.90;;;;;;5101473;28;20039;-76
2023/09/21 00:30:35;;;;;;;0.65;0.65;;;18.00;99.90;;;;;;5108939;28;20405;-76
2023/09/21 00:33:07;;;;;;;0.20;0.20;;;18.00;99.90;;;;;;5104462;28;20055;-76
2023/09/21 00:35:40;;;;;;;0.20;0.20;;;18.00;99.90;;;;;;5103276;28;20059;-76
2023/09/21 00:38:09;;;;;;;0.43;0.43;;;18.00;99.90;;;;;;5100567;28;20054;-76
2023/09/21 00:40:39;;;;;;;0.20;0.20;;;17.90;99.90;;;;;;5098020;28;20071;-76
2023/09/21 00:43:12;;;;;;;0.30;0.30;;;18.00;99.90;;;;;;5098679;28;20042;-76
2023/09/21 00:45:41;;;;;;;0.40;0.40;;;18.00;99.90;;;;;;5100097;28;20078;-76
2023/09/21 00:48:12;;;;;;;0.30;0.30;;;18.00;99.90;;;;;;5106952;28;20170;-76
2023/09/21 00:50:41;;;;;;;0.30;0.30;;;18.00;99.90;;;;;;5108461;28;20043;-76
2023/09/21 00:53:13;;;;;;;0.63;0.40;;;17.90;99.90;;;;;;5101771;28;20040;-76
2023/09/21 00:55:40;;;;;;;0.65;0.65;;;17.90;99.90;;;;;;5101555;28;20806;-76
2023/09/21 00:58:07;;;;;;;0.20;0.20;;;17.90;99.90;;;;;;5106235;28;20054;-76
2023/09/21 01:00:34;;;;;;;0.70;0.70;;;18.00;99.90;;;;;;5101153;28;20561;-76
2023/09/21 01:03:07;;;;;;;0.20;0.20;;;17.90;99.90;;;;;;5100320;28;20434;-76
2023/09/21 01:05:39;;;;;;;0.25;0.25;;;17.90;99.90;;;;;;5104202;28;20043;-76
2023/09/21 01:08:11;;;;;;;0.70;0.70;;;17.90;99.90;;;;;;5095207;28;20051;-77
2023/09/21 01:10:41;;;;;;;0.30;0.30;;;17.90;99.90;;;;;;5106836;27;20138;-76
2023/09/21 01:13:08;;;;;;;0.40;0.40;;;17.90;99.90;;;;;;5105131;28;20040;-76
2023/09/21 01:15:34;;;;;;;0.35;0.35;;;17.80;99.90;;;;;;5098912;28;20046;-76
2023/09/21 01:18:02;;;;;;;0.40;0.40;;;17.90;99.90;;;;;;5100900;28;20052;-76
2023/09/21 01:20:30;;;;;;;0.38;0.38;;;17.90;99.90;;;;;;5102911;27;20067;-76
2023/09/21 01:23:14;;;;;;;0.20;0.20;;;17.90;99.90;;;;;;5098583;28;20043;-76
2023/09/21 01:25:46;;;;;;;0.60;0.60;;;17.90;99.90;;;;;;5104740;28;20048;-76
2023/09/21 01:28:17;;;;;;;0.30;0.30;;;18.00;99.90;;;;;;5100323;28;20054;-75
2023/09/21 01:30:43;;;;;;;0.30;0.30;;;18.00;99.90;;;;;;5104231;28;20039;-76
2023/09/21 01:33:11;;;;;;;1.00;1.00;;;18.00;99.90;;;;;;5103109;28;20501;-74
2023/09/21 01:35:43;;;;;;;0.15;0.15;;;18.00;99.90;;;;;;5103641;28;20050;-76
2023/09/21 01:38:09;;;;;;;0.52;0.52;;;18.00;99.90;;;;;;5104463;28;20032;-75
2023/09/21 01:40:36;;;;;;;0.30;0.30;;;18.00;99.90;;;;;;5102281;28;20049;-74
2023/09/21 01:43:17;;;;;;;0.50;0.50;;;18.00;99.90;;;;;;5096338;28;20040;-75
2023/09/21 01:45:48;;;;;;;0.65;0.65;;;18.10;99.90;;;;;;5101028;28;20062;-75
2023/09/21 01:48:15;;;;;;;0.35;0.35;;;18.10;99.90;;;;;;5100216;28;20246;-75
2023/09/21 01:50:46;;;;;;;0.57;0.57;;;18.10;99.90;;;;;;5099567;28;20131;-75
2023/09/21 01:53:16;;;;;;;0.20;0.20;;;18.10;99.90;;;;;;5103561;28;20779;-75
2023/09/21 01:55:43;;;;;;;0.30;0.30;;;18.10;99.90;;;;;;5105045;28;20080;-75
2023/09/21 01:58:09;;;;;;;0.35;0.35;;;18.10;99.90;;;;;;5105912;28;20039;-75
2023/09/21 02:00:39;;;;;;;0.32;0.32;;;18.10;99.90;;;;;;5100856;28;20577;-74
2023/09/21 02:03:12;;;;;;;0.38;0.38;;;18.10;99.90;;;;;;5100391;28;20055;-75
2023/09/21 02:05:41;;;;;;;0.52;0.40;;;18.00;99.90;;;;;;5104196;28;20055;-75
2023/09/21 02:08:08;;;;;;;0.30;0.30;;;18.00;99.90;;;;;;5106405;28;20059;-75
2023/09/21 02:10:35;;;;;;;0.50;0.50;;;18.00;99.90;;;;;;5101107;28;20035;-75
2023/09/21 02:13:05;;;;;;;0.20;0.20;;;18.00;99.90;;;;;;5101883;28;20059;-76
2023/09/21 02:15:34;;;;;;;0.65;0.65;;;18.00;99.90;;;;;;5103109;28;20105;-75
2023/09/21 02:18:02;;;;;;;0.45;0.45;;;18.00;99.90;;;;;;5100190;28;20420;-75
2023/09/21 02:20:29;;;;;;;0.60;0.60;;;18.00;99.90;;;;;;5097981;28;20044;-75
2023/09/21 02:23:00;;;;;;;0.50;0.50;;;18.00;99.90;;;;;;5105340;28;20077;-75
2023/09/21 02:25:30;;;;;;;0.40;0.40;;;18.00;99.90;;;;;;5099319;28;20082;-75
2023/09/21 02:27:56;;;;;;;0.50;0.50;;;18.00;99.90;;;;;;5101959;28;20059;-76
2023/09/21 02:30:22;;;;;;;;;;;18.00;99.90;;;;;;5103453;28;20096;-76
2023/09/21 02:32:53;;;;;;;0.20;0.20;;;18.00;99.90;;;;;;5100112;28;19928;-76
2023/09/21 02:35:27;;;;;;;0.32;0.32;;;18.10;99.90;;;;;;5098721;28;20044;-75
2023/09/21 02:37:57;;;;;;;0.17;0.17;;;18.00;99.90;;;;;;5104315;28;20043;-75
2023/09/21 02:40:24;;;;;;;0.35;0.35;;;18.00;99.90;;;;;;5105001;28;20101;-75
2023/09/21 02:42:51;;;;;;;0.30;0.30;;;18.00;99.90;;;;;;5097229;28;20040;-75
2023/09/21 02:45:18;;;;;;;0.20;0.20;;;17.90;99.90;;;;;;5101480;28;20028;-75
2023/09/21 02:47:46;;;;;;;0.30;0.30;;;17.90;99.90;;;;;;5101566;28;20743;-76
2023/09/21 02:50:21;;;;;;;0.40;0.40;;;17.90;99.90;;;;;;5099719;28;20044;-75
2023/09/21 02:52:57;;;;;;;0.50;0.50;;;17.90;99.90;;;;;;5105463;27;20039;-76
2023/09/21 02:55:27;;;;;;;0.50;0.50;;;18.00;99.90;;;;;;5101847;28;20063;-75
2023/09/21 02:58:12;;;;;;;0.55;0.55;;;18.10;99.90;;;;;;5101784;28;20067;-75
2023/09/21 03:00:39;;;;;;;0.50;0.50;;;18.10;99.90;;;;;;5103775;28;20489;-75
2023/09/21 03:03:12;;;;;;;0.40;0.40;;;18.10;99.90;;;;;;5102676;28;20482;-75
2023/09/21 03:05:39;;;;;;;0.38;0.38;;;18.20;99.90;;;;;;5105256;27;20759;-75
2023/09/21 03:08:09;;;;;;;0.30;0.30;;;18.10;99.90;;;;;;5109592;28;20516;-75
2023/09/21 03:10:38;;;;;;;0.25;0.25;;;18.00;99.90;;;;;;5103493;28;20421;-75
2023/09/21 03:13:05;;;;;;;0.55;0.55;;;18.10;99.90;;;;;;5106021;28;20084;-75
2023/09/21 03:15:33;;;;;;;0.28;0.28;;;18.10;99.90;;;;;;5104057;27;20488;-76
2023/09/21 03:17:58;;;;;;;0.30;0.30;;;18.00;99.90;;;;;;5106935;28;20397;-75
2023/09/21 03:22:54;;;;;;;0.65;0.65;;;18.00;99.90;;;;;;5103521;28;19927;-75
2023/09/21 03:25:27;;;;;;;0.35;0.35;;;18.00;99.90;;;;;;5104063;28;20153;-75
2023/09/21 03:27:54;;;;;;;0.40;0.40;;;18.00;99.90;;;;;;5106514;27;20375;-74
2023/09/21 03:30:20;;;;;;;0.20;0.20;;;18.00;99.90;;;;;;5108473;28;20055;-75
2023/09/21 03:32:46;;;;;;;0.30;0.30;;;18.00;99.90;;;;;;5102166;28;20074;-74
2023/09/21 03:35:12;;;;;;;;;;;18.00;99.90;;;;;;5102752;28;20079;-75
2023/09/21 03:37:45;;;;;;;0.20;0.20;;;17.90;99.90;;;;;;5109118;28;19994;-75
2023/09/21 03:40:11;;;;;;;0.40;0.40;;;17.90;99.90;;;;;;5109044;28;20077;-75
2023/09/21 03:42:38;;;;;;;0.52;0.52;;;17.90;99.90;;;;;;5108324;28;20036;-75
2023/09/21 03:45:05;;;;;;;0.30;0.30;;;17.90;99.90;;;;;;5105585;28;20043;-75
2023/09/21 03:47:31;;;;;;;0.30;0.30;;;18.00;99.90;;;;;;5101212;28;20069;-75
2023/09/21 03:49:59;;;;;;;0.65;0.65;;;18.00;99.90;;;;;;5103852;28;20051;-75
2023/09/21 03:52:25;;;;;;;0.20;0.20;;;18.00;99.90;;;;;;5099326;28;20043;-75
2023/09/21 03:54:52;;;;;;;;;;;18.00;99.90;;;;;;5101493;28;20044;-75
2023/09/21 03:57:17;;;;;;;;;;;18.20;99.90;;;;;;5101987;28;19928;-75
2023/09/21 03:59:46;;;;;;;0.30;0.30;;;18.30;99.90;;;;;;5105122;28;20328;-75
2023/09/21 04:02:17;;;;;;;0.30;0.30;;;18.30;99.90;;;;;;5098132;28;20052;-75
2023/09/21 04:04:44;;;;;;;;;;;18.40;99.90;;;;;;5108221;28;20039;-75
2023/09/21 04:07:12;;;;;;;0.20;0.20;;;18.50;99.90;;;;;;5100835;28;20027;-75
2023/09/21 04:09:39;;;;;;;0.55;0.55;;;18.50;99.90;;;;;;5101064;28;20043;-75
2023/09/21 04:12:05;;;;;;;0.20;0.20;;;18.60;99.90;;;;;;5098705;28;20114;-75
2023/09/21 04:14:30;;;;;;;;;;;18.60;99.90;;;;;;5101253;28;20036;-75
2023/09/21 04:16:56;;;;;;;0.30;0.30;;;18.60;99.90;;;;;;5101946;28;19976;-75
2023/09/21 04:19:22;;;;;;;;;;;18.60;99.90;;;;;;5100131;28;20652;-75
2023/09/21 04:21:48;;;;;;;0.85;0.52;;;18.60;99.90;;;;;;5105052;28;19974;-75
2023/09/21 04:24:14;;;;;;;;;;;18.60;99.90;;;;;;5106285;28;20135;-75
2023/09/21 04:26:40;;;;;;;0.40;0.40;;;18.60;99.90;;;;;;5105977;28;19924;-75
2023/09/21 04:29:07;;;;;;;0.30;0.30;;;18.60;99.90;;;;;;5101411;28;20126;-75
2023/09/21 04:31:32;;;;;;;0.20;0.20;;;18.60;99.90;;;;;;5104366;28;20110;-75
2023/09/21 04:33:58;;;;;;;;;;;18.50;99.90;;;;;;5102355;28;20142;-75
2023/09/21 04:36:24;;;;;;;0.82;0.82;;;18.50;99.90;;;;;;5102153;28;21904;-75
2023/09/21 04:38:51;;;;;;;0.60;0.60;;;18.50;99.90;;;;;;5105038;28;20391;-75
2023/09/21 04:41:16;;;;;;;0.50;0.50;;;18.40;99.90;;;;;;5103978;28;20047;-75
2023/09/21 04:43:42;;;;;;;;;;;18.30;99.90;;;;;;5100042;28;20069;-75
2023/09/21 04:46:09;;;;;;;0.60;0.60;;;18.20;99.90;;;;;;5104281;28;19924;-75
2023/09/21 04:48:36;;;;;;;0.20;0.20;;;18.20;99.90;;;;;;5104303;28;20043;-75
2023/09/21 04:51:02;;;;;;;0.30;0.30;;;18.10;99.90;;;;;;5104409;28;20055;-75
2023/09/21 04:53:29;;;;;;;0.50;0.50;;;18.20;99.90;;;;;;5104346;28;20089;-75
2023/09/21 04:55:55;;;;;;;0.20;0.20;;;18.00;99.90;;;;;;5108393;28;20435;-75
2023/09/21 04:58:21;;;;;;;0.20;0.20;;;18.00;99.90;;;;;;5106106;27;20123;-75
2023/09/21 05:00:49;;;;;;;0.40;0.40;;;17.90;99.90;;;;;;5105393;28;20048;-75
2023/09/21 05:03:14;;;;;;;0.20;0.20;;;17.90;99.90;;;;;;5103338;28;20050;-75
2023/09/21 05:05:40;;;;;;;;;;;17.90;99.90;;;;;;5108027;28;20443;-75
2023/09/21 05:08:06;;;;;;;0.30;0.30;;;17.90;99.90;;;;;;5105082;28;20117;-75
2023/09/21 05:10:31;;;;;;;;;;;17.90;99.90;;;;;;5103482;28;20641;-76
2023/09/21 05:12:57;;;;;;;0.43;0.43;;;17.90;99.90;;;;;;5104565;28;19969;-75
2023/09/21 05:15:23;;;;;;;;;;;17.90;99.90;;;;;;5105400;28;20500;-75
2023/09/21 05:17:49;;;;;;;0.32;0.32;;;17.90;99.90;;;;;;5086675;28;19931;-75
2023/09/21 05:20:15;;;;;;;;;;;17.80;99.90;;;;;;5105362;28;20051;-75
2023/09/21 05:22:42;;;;;;;0.20;0.20;;;17.80;99.90;;;;;;5105566;28;19954;-76
2023/09/21 05:25:09;;;;;;;0.30;0.30;;;17.80;99.90;;;;;;5105882;28;20078;-75
2023/09/21 05:27:36;;;;;;;0.28;0.28;;;17.80;99.90;;;;;;5105755;28;20462;-74
2023/09/21 05:30:05;;;;;;;0.75;0.75;;;17.80;99.90;;;;;;5104988;28;20530;-75
2023/09/21 05:32:34;;;;;;;0.30;0.30;;;17.80;99.90;;;;;;5103747;28;20044;-75
2023/09/21 05:35:00;;;;;;;0.40;0.40;;;17.80;99.90;;;;;;5100897;28;20055;-77
2023/09/21 05:37:25;;;;;;;;;;;17.80;99.90;;;;;;5104758;28;20054;-77
2023/09/21 05:39:54;;;;;;;0.52;0.52;;;17.90;99.90;;;;;;5099962;28;19923;-76
2023/09/21 05:42:19;;;;;;;0.30;0.30;;;17.90;99.90;;;;;;5104910;28;20470;-76
2023/09/21 05:44:45;;;;;;;;;;;18.00;99.90;;;;;;5102534;28;20144;-74
2023/09/21 05:47:11;;;;;;;0.20;0.20;;;18.00;99.90;;;;;;5102093;28;19923;-75
2023/09/21 05:49:37;;;;;;;;;;;18.00;99.90;;;;;;5102840;28;20078;-76
2023/09/21 05:52:11;;;;;;;0.40;0.40;;;18.00;99.90;;;;;;5102545;28;19923;-75
2023/09/21 05:54:37;;;;;;;0.43;0.43;;;18.00;99.90;;;;;;5102253;28;20051;-74
2023/09/21 05:57:03;;;;;;;;;;;18.10;99.90;;;;;;5109242;28;20047;-75
2023/09/21 05:59:31;;;;;;;0.50;0.50;;;18.10;99.90;;;;;;5099005;28;19923;-75
2023/09/21 06:02:02;;;;;;;0.45;0.45;;;18.20;99.90;;;;;;5091144;27;20055;-75
2023/09/21 06:04:29;;;;;;;0.50;0.50;;;18.20;99.90;;;;;;5096190;28;20399;-75
2023/09/21 06:06:58;;;;;;;0.30;0.30;;;18.30;99.90;;;;;;5100066;28;20444;-74
2023/09/21 06:09:23;;;;;;;0.30;0.30;;;18.30;99.90;;;;;;5094331;28;20059;-74
2023/09/21 06:11:49;;;;;;;;;;;18.30;99.90;;;;;;5094901;28;20055;-74
2023/09/21 06:14:17;;;;;;;0.30;0.30;;;18.30;99.90;;;;;;5101837;28;19924;-74
2023/09/21 06:16:43;;;;;;;0.40;0.40;;;18.30;99.90;;;;;;5102079;28;20154;-74
2023/09/21 06:19:11;;;;;;;0.63;0.63;;;18.40;99.90;;;;;;5095326;28;20444;-75
2023/09/21 06:21:41;;;;;;;0.38;0.38;;;18.40;99.90;;;;;;5099636;28;20143;-75
2023/09/21 06:24:08;;;;;;;1.23;1.15;;;18.40;99.90;;;;;;5101855;28;20685;-75
2023/09/21 06:26:35;;;;;;;0.30;0.30;;;18.50;99.90;;;;;;5098806;28;20052;-75
2023/09/21 06:29:01;;;;;;;0.55;0.55;;;18.50;99.90;;;;;;5105653;28;20058;-75
2023/09/21 06:31:27;;;;;;;0.30;0.30;;;18.50;99.90;;;;;;5101249;28;20042;-75
2023/09/21 06:33:57;;;;;;;;;;;18.50;99.90;;;;;;5099430;28;20048;-75
2023/09/21 06:36:24;;;;;;;0.30;0.30;;;18.50;99.90;;;;;;5098361;28;20288;-75
2023/09/21 06:38:50;;;;;;;0.40;0.40;;;18.40;99.90;;;;;;5112305;27;20044;-75
2023/09/21 06:41:16;;;;;;;;;;;18.30;99.90;;;;;;5097536;28;20046;-75
2023/09/21 06:43:44;;;;;;;0.30;0.30;;;18.30;99.90;;;;;;5099964;28;19969;-75
2023/09/21 06:46:11;;;;;;;0.30;0.30;;;18.20;99.90;;;;;;5098570;28;20047;-75
2023/09/21 06:48:38;;;;;;;0.40;0.40;;;18.30;99.90;;;;;;5098476;28;20048;-75
2023/09/21 06:51:07;;;;;;;0.40;0.40;;;18.20;99.90;;;;;;5098003;28;20604;-75
2023/09/21 06:53:35;;;;;;;0.50;0.50;;;18.20;99.90;;;;;;5100144;28;20070;-75
2023/09/21 06:56:02;;;;;;;0.30;0.30;;;18.20;99.90;;;;;;5101694;28;20128;-75
2023/09/21 06:58:35;;;;;;;0.30;0.30;;;18.30;99.90;;;;;;5097139;28;20036;-75
2023/09/21 07:01:04;;;;;;;0.40;0.40;;;18.30;99.90;;;;;;5093640;28;20052;-75
2023/09/21 07:03:29;;;;;;;0.32;0.32;;;18.30;99.90;;;;;;5094560;28;20074;-75
2023/09/21 07:05:55;;;;;;;;;;;18.30;99.90;;;;;;5098459;28;20478;-75
2023/09/21 07:08:21;;;;;;;0.40;0.40;;;18.10;99.90;;;;;;5086936;28;20204;-75
2023/09/21 07:10:49;;;;;;;;;;;18.10;99.90;;;;;;5102174;28;20044;-74
2023/09/21 07:13:18;;;;;;;0.30;0.30;;;18.00;99.90;;;;;;5101477;28;19927;-75
2023/09/21 07:15:44;;;;;;;0.28;0.28;;;17.90;99.90;;;;;;5103562;28;20135;-75
2023/09/21 07:18:11;;;;;;;;;;;17.80;99.90;;;;;;5099507;28;20123;-75
2023/09/21 07:20:37;;;;;;;0.38;0.38;;;17.70;99.90;;;;;;5099479;28;19924;-75
2023/09/21 07:23:09;;;;;;;0.30;0.30;;;17.70;99.90;;;;;;5102630;28;20062;-75
2023/09/21 07:25:35;;;;;;;0.40;0.40;;;17.60;99.90;;;;;;5099182;28;20059;-75
2023/09/21 07:28:01;;;;;;;;;;;17.50;99.90;;;;;;5103319;28;20058;-75
2023/09/21 07:30:27;;;;;;;1.38;1.00;;;17.50;99.90;;;;;;5097271;28;19967;-76
2023/09/21 07:32:55;;;;;;;;;;;17.50;99.90;;;;;;5098015;28;20059;-75
2023/09/21 07:35:24;;;;;;;0.20;0.20;;;17.40;99.90;;;;;;5102289;28;19966;-76
2023/09/21 07:37:51;;;;;;;0.30;0.30;;;17.40;99.90;;;;;;5103889;28;20401;-75
2023/09/21 07:40:18;;;;;;;0.30;0.30;;;17.40;99.90;;;;;;5099719;28;20096;-75
2023/09/21 07:42:45;;;;;;;0.13;0.13;;;17.40;99.90;;;;;;5102831;28;20144;-75
2023/09/21 07:45:11;;;;;;;0.30;0.30;;;17.40;99.90;;;;;;5103212;28;20044;-75
2023/09/21 07:47:38;;;;;;;0.30;0.30;;;17.40;99.90;;;;;;5098893;27;20047;-75
2023/09/21 07:50:05;;;;;;;0.82;0.82;;;17.50;99.90;;;;;;5101482;28;20068;-75
2023/09/21 07:52:33;;;;;;;0.22;0.22;;;17.50;99.90;;;;;;5100610;28;20051;-75
2023/09/21 07:55:00;;;;;;;0.40;0.40;;;17.50;99.90;;;;;;5100387;28;20470;-75
2023/09/21 07:57:25;;;;;;;0.35;0.35;;;17.50;99.90;;;;;;5105984;28;20051;-75
2023/09/21 07:59:51;;;;;;;;;;;17.50;99.90;;;;;;5107999;28;20123;-75
2023/09/21 08:02:18;;;;;;;0.30;0.30;;;17.50;99.90;;;;;;5104843;27;19923;-75
2023/09/21 08:04:44;;;;;;;0.75;0.55;;;17.50;99.90;;;;;;5106476;28;20058;-75
2023/09/21 08:07:10;;;;;;;;;;;17.50;99.90;;;;;;5104533;27;20051;-75
2023/09/21 08:09:35;;;;;;;0.47;0.30;;;17.50;99.90;;;;;;5100753;27;19924;-75
2023/09/21 08:12:02;;;;;;;;;;;17.40;99.90;;;;;;5099165;28;20040;-75
2023/09/21 08:14:29;;;;;;;0.28;0.28;;;17.40;99.90;;;;;;5104252;28;20295;-75
2023/09/21 08:16:55;;;;;;;0.25;0.25;;;17.40;99.90;;;;;;5101087;28;20059;-75
2023/09/21 08:19:21;;;;;;;;;;;17.30;99.90;;;;;;5103648;28;20236;-74
2023/09/21 08:21:48;;;;;;;0.20;0.20;;;17.30;99.90;;;;;;5101165;28;19982;-74
2023/09/21 08:24:14;;;;;;;0.43;0.43;;;17.30;99.90;;;;;;5099632;28;20146;-75
2023/09/21 08:26:40;;;;;;;;;;;17.30;99.90;;;;;;5098025;28;20044;-75
2023/09/21 08:29:14;;;;;;;0.45;0.45;;;17.20;99.90;;;;;;5106446;28;19949;-74
2023/09/21 08:31:41;;;;;;;0.20;0.20;;;17.20;99.90;;;;;;5099600;28;20052;-75
2023/09/21 08:34:06;;;;;;;0.55;0.55;;;17.20;99.90;;;;;;5105305;28;20051;-75
2023/09/21 08:36:32;;;;;;;;;;;17.30;99.90;;;;;;5094772;28;20055;-75
2023/09/21 08:39:02;;;;;;;2.08;1.65;;;17.30;99.90;;;;;;5101701;28;20060;-75
2023/09/21 08:41:29;;;;;;;1.02;0.63;;;17.30;99.90;;;;;;5098026;28;20048;-75
2023/09/21 08:43:55;;;;;;;0.38;0.38;;;17.30;99.90;;;;;;5099083;28;20385;-75
2023/09/21 08:46:21;;;;;;;0.55;0.55;;;17.30;99.90;;;;;;5100475;28;20043;-75
2023/09/21 08:48:47;;;;;;;;;;;17.30;99.90;;;;;;5101218;28;20161;-75
2023/09/21 08:51:18;;;;;;;0.95;0.45;;;17.20;99.90;;;;;;5106795;28;20017;-75
2023/09/21 08:53:50;;;;;;;0.30;0.30;;;17.20;99.90;;;;;;5100694;28;20123;-75
2023/09/21 08:56:16;;;;;;;0.65;0.65;;;17.10;99.90;;;;;;5099664;28;20089;-74
2023/09/21 08:58:43;;;;;;;0.32;0.32;;;17.10;99.90;;;;;;5103146;28;20124;-74
2023/09/21 09:01:11;;;;;;;0.28;0.28;;;17.00;99.90;;;;;;5101353;28;20044;-75
2023/09/21 09:03:37;;;;;;;0.20;0.20;;;16.90;99.90;;;;;;5103178;28;20035;-75
2023/09/21 09:06:04;;;;;;;1.08;0.50;;;16.90;99.90;;;;;;5100415;28;20056;-75
2023/09/21 09:08:30;;;;;;;0.30;0.30;;;16.90;99.90;;;;;;5102538;28;20044;-75
2023/09/21 09:10:55;;;;;;;;;;;16.80;99.90;;;;;;5096729;28;20195;-75
2023/09/21 09:13:31;;;;;;;0.20;0.20;;;16.70;99.90;;;;;;5097011;28;19947;-75
2023/09/21 09:15:59;;;;;;;0.20;0.20;;;16.50;99.90;;;;;;5102449;28;20359;-75
2023/09/21 09:18:28;;;;;;;0.32;0.32;;;16.30;99.90;;;;;;5104542;28;20047;-75
2023/09/21 09:20:54;;;;;;;0.40;0.40;;;16.20;99.90;;;;;;5105448;28;20051;-75
2023/09/21 09:23:20;;;;;;;;;;;16.00;99.90;;;;;;5099051;28;20039;-75
2023/09/21 09:25:49;;;;;;;0.32;0.32;;;15.80;99.90;;;;;;5101111;28;19923;-75
2023/09/21 09:28:18;;;;;;;0.20;0.20;;;15.70;99.90;;;;;;5102574;28;20051;-75
2023/09/21 09:30:48;;;;;;;0.38;0.38;;;15.60;99.90;;;;;;5097312;28;20101;-76
2023/09/21 09:33:15;;;;;;;0.20;0.20;;;15.50;99.90;;;;;;5094985;28;20075;-75
2023/09/21 09:35:42;;;;;;;0.30;0.30;;;15.40;99.90;;;;;;5098616;28;20051;-75
2023/09/21 09:38:11;;;;;;;0.30;0.30;;;15.40;99.90;;;;;;5105172;28;20140;-75
2023/09/21 09:40:38;;;;;;;0.25;0.25;;;15.30;99.90;;;;;;5109912;28;20786;-75
2023/09/21 09:43:07;;;;;;;0.22;0.22;;;15.40;99.90;;;;;;5100215;28;20052;-76
2023/09/21 09:45:37;;;;;;;0.20;0.20;;;15.30;99.90;;;;;;5098008;28;20049;-76
2023/09/21 09:48:11;;;;;;;0.30;0.30;;;15.30;99.90;;;;;;5095002;28;20080;-76
2023/09/21 09:50:42;;;;;;;0.30;0.30;;;15.30;99.90;;;;;;5106126;28;20122;-75
2023/09/21 09:53:13;;;;;;;0.30;0.30;;;15.30;99.90;;;;;;5105054;28;20063;-77
2023/09/21 09:55:42;;;;;;;0.20;0.20;;;15.30;99.90;;;;;;5103849;27;20093;-75
2023/09/21 09:58:08;;;;;;;0.20;0.20;;;15.30;99.90;;;;;;5103302;28;20059;-76
2023/09/21 10:00:35;;;;;;;0.20;0.20;;;15.20;99.90;;;;;;5098275;28;20925;-76
2023/09/21 10:03:03;;;;;;;0.28;0.28;;;15.20;99.90;;;;;;5102668;28;20051;-76
2023/09/21 10:05:30;;;;;;;0.30;0.30;;;15.30;99.90;;;;;;5103240;28;20050;-75
2023/09/21 10:08:00;;;;;;;0.20;0.20;;;15.30;99.90;;;;;;5099547;28;20351;-76
2023/09/21 10:10:30;;;;;;;0.20;0.20;;;15.30;99.90;;;;;;5100500;28;20054;-76
2023/09/21 10:12:57;;;;;;;0.30;0.30;;;15.30;99.90;;;;;;5103545;28;20525;-76
2023/09/21 10:15:26;;;;;;;0.30;0.30;;;15.20;99.90;;;;;;5104673;28;20150;-76
2023/09/21 10:17:56;;;;;;;0.20;0.20;;;15.20;99.90;;;;;;5096927;28;20122;-75
2023/09/21 10:20:33;;;;;;;0.30;0.30;;;15.20;99.90;;;;;;5104243;28;20063;-75
2023/09/21 10:23:09;;;;;;;0.20;0.20;;;15.20;99.90;;;;;;5102907;28;21696;-76
2023/09/21 10:25:39;;;;;;;0.57;0.35;;;15.10;99.90;;;;;;5101739;28;20043;-75
2023/09/21 10:28:27;;;;;;;0.30;0.30;;;15.10;99.90;;;;;;5097370;28;20048;-75
2023/09/21 10:31:20;;;;;;;0.40;0.40;;;15.10;99.90;;;;;;5101307;28;20052;-75
2023/09/21 10:33:56;;;;;;;0.30;0.30;;;15.20;99.90;;;;;;5098524;28;20056;-75
2023/09/21 10:36:22;;;;;;;0.30;0.30;;;15.30;99.90;;;;;;5096180;28;20155;-75
2023/09/21 10:39:05;;;;;;;0.80;0.80;;;15.30;99.90;;;;;;5101921;28;20119;-75
2023/09/21 10:41:35;;;;;;;0.32;0.32;;;15.20;99.90;;;;;;5099673;28;20052;-75
2023/09/21 10:44:02;;;;;;;0.77;0.77;;;15.20;99.90;;;;;;5099752;28;20062;-75
2023/09/21 10:46:31;;;;;;;0.25;0.25;;;15.30;99.90;;;;;;5104101;28;20043;-75
2023/09/21 10:49:03;;;;;;;0.20;0.20;;;15.30;99.90;;;;;;5098791;28;20047;-75
2023/09/21 10:51:52;;;;;;;0.30;0.30;;;15.30;99.90;;;;;;5104312;28;20497;-75
2023/09/21 10:54:18;;;;;;;0.20;0.20;;;15.30;99.90;;;;;;5098324;28;20047;-75
2023/09/21 10:56:43;;;;;;;0.22;0.22;;;15.40;99.90;;;;;;5099898;28;20042;-75
2023/09/21 10:59:09;;;;;;;;;;;15.40;99.90;;;;;;5099164;28;20085;-75
2023/09/21 11:01:39;;;;;;;0.20;0.20;;;15.40;99.90;;;;;;5095944;28;20471;-75
2023/09/21 11:04:05;;;;;;;0.30;0.30;;;15.60;99.90;;;;;;5096837;28;20752;-75
2023/09/21 11:06:31;;;;;;;0.30;0.30;;;15.80;99.90;;;;;;5103348;28;20392;-75
2023/09/21 11:08:57;;;;;;;0.30;0.30;;;15.90;99.90;;;;;;5102731;28;20048;-74
2023/09/21 11:11:25;;;;;;;0.30;0.30;;;16.10;99.90;;;;;;5094306;28;20108;-74
2023/09/21 11:13:51;;;;;;;0.20;0.20;;;16.20;99.90;;;;;;5104168;28;20043;-74
2023/09/21 11:16:21;;;;;;;0.20;0.20;;;16.40;99.90;;;;;;5105477;28;20141;-74
2023/09/21 11:18:48;;;;;;;0.20;0.20;;;16.50;99.90;;;;;;5100089;28;20046;-74
2023/09/21 11:21:16;;;;;;;0.20;0.20;;;16.60;99.90;;;;;;5100243;28;20086;-74
2023/09/21 11:23:44;;;;;;;0.20;0.20;;;16.60;99.90;;;;;;5104983;28;20555;-75
2023/09/21 11:26:14;;;;;;;0.35;0.35;;;16.50;99.90;;;;;;5103174;28;20422;-74
2023/09/21 11:28:41;;;;;;;0.20;0.20;;;16.30;99.90;;;;;;5100767;28;20040;-74
2023/09/21 11:31:10;;;;;;;0.30;0.30;;;16.20;99.90;;;;;;5103408;28;20048;-74
2023/09/21 11:33:35;;;;;;;0.30;0.30;;;16.10;99.90;;;;;;5100907;28;20036;-75
2023/09/21 11:36:04;;;;;;;0.20;0.20;;;16.00;99.90;;;;;;5095606;28;21230;-74
2023/09/21 11:38:33;;;;;;;0.32;0.30;;;16.00;99.90;;;;;;5101149;27;20048;-74
2023/09/21 11:41:00;;;;;;;0.28;0.28;;;16.00;99.90;;;;;;5099461;28;20102;-74
2023/09/21 11:43:26;;;;;;;0.30;0.30;;;16.00;99.90;;;;;;5105111;28;20040;-75
2023/09/21 11:45:52;;;;;;;;;;;15.90;99.90;;;;;;5107029;28;20431;-75
2023/09/21 11:48:21;;;;;;;0.20;0.20;;;15.90;99.90;;;;;;5100923;28;19924;-75
2023/09/21 11:50:48;;;;;;;0.30;0.30;;;15.90;99.90;;;;;;5107998;28;20057;-75
2023/09/21 11:53:14;;;;;;;0.30;0.30;;;16.00;99.90;;;;;;5094557;28;20165;-75
2023/09/21 11:55:43;;;;;;;0.20;0.20;;;16.10;99.90;;;;;;5100011;28;20511;-75
2023/09/21 11:58:16;;;;;;;0.20;0.20;;;16.30;99.90;;;;;;5101198;28;20091;-75
2023/09/21 12:00:49;;;;;;;0.30;0.30;;;16.40;99.90;;;;;;5104955;27;20040;-75
2023/09/21 12:03:17;;;;;;;0.30;0.30;;;16.50;99.90;;;;;;5105571;28;20036;-75
2023/09/21 12:05:46;;;;;;;0.20;0.20;;;16.50;99.90;;;;;;5093939;28;20062;-75
2023/09/21 12:08:14;;;;;;;0.30;0.30;;;16.40;99.90;;;;;;5096635;28;20085;-75
2023/09/21 12:10:52;;;;;;;0.22;0.22;;;16.40;99.90;;;;;;5106441;27;20043;-74
2023/09/21 12:13:19;;;;;;;0.20;0.20;;;16.20;99.90;;;;;;5101364;28;20036;-75
2023/09/21 12:15:45;;;;;;;0.30;0.30;;;16.00;99.90;;;;;;5100125;28;20047;-75
2023/09/21 12:18:10;;;;;;;;;;;15.90;99.90;;;;;;5099586;27;20044;-76
2023/09/21 12:20:44;;;;;;;0.30;0.30;;;15.70;99.90;;;;;;5099640;28;19945;-76
2023/09/21 12:23:12;;;;;;;0.20;0.20;;;15.70;99.90;;;;;;5107617;28;20051;-75
2023/09/21 12:25:38;;;;;;;0.30;0.30;;;15.80;99.90;;;;;;5102814;28;20493;-76
2023/09/21 12:28:04;;;;;;;0.73;0.73;;;15.90;99.90;;;;;;5104278;28;20058;-75
2023/09/21 12:30:30;;;;;;;0.13;0.13;;;16.00;99.90;;;;;;5099347;28;20047;-75
2023/09/21 12:32:56;;;;;;;;;;;16.10;99.90;;;;;;5101567;27;20051;-75
2023/09/21 12:35:25;;;;;;;0.20;0.20;;;16.20;99.90;;;;;;5098537;28;20273;-75
2023/09/21 12:37:51;;;;;;;0.15;0.15;;;16.20;99.90;;;;;;5100681;28;20076;-75
2023/09/21 12:40:17;;;;;;;0.30;0.30;;;16.30;99.90;;;;;;5098320;28;20163;-75
2023/09/21 12:42:43;;;;;;;0.30;0.30;;;16.30;99.90;;;;;;5101044;28;20109;-75
2023/09/21 12:45:15;;;;;;;0.30;0.30;;;16.30;99.90;;;;;;5105090;28;20048;-75
2023/09/21 12:47:41;;;;;;;0.20;0.20;;;16.20;99.90;;;;;;5096148;28;20048;-76
2023/09/21 12:50:09;;;;;;;0.20;0.20;;;16.20;99.90;;;;;;5102735;28;20039;-76
2023/09/21 12:52:35;;;;;;;0.63;0.32;;;16.20;99.90;;;;;;5098135;28;20052;-76
2023/09/21 12:55:07;;;;;;;0.20;0.20;;;16.20;99.90;;;;;;5102212;28;20056;-75
2023/09/21 12:57:37;;;;;;;0.20;0.20;;;16.20;99.90;;;;;;5099317;28;20048;-75
2023/09/21 13:00:10;;;;;;;0.20;0.20;;;16.20;99.90;;;;;;5098994;28;20051;-75
2023/09/21 13:02:39;;;;;;;0.25;0.25;;;16.30;99.90;;;;;;5102056;28;20481;-75
2023/09/21 13:05:06;;;;;;;0.30;0.30;;;16.30;99.90;;;;;;5103556;28;20055;-75
2023/09/21 13:07:31;;;;;;;0.30;0.30;;;16.30;99.90;;;;;;5103764;27;20044;-75